createdAt,value
2022-11-13T00:01:17.887Z,96587.50
2022-11-13T00:04:04.336Z,96573.69
2022-11-13T00:06:56.154Z,96567.63
2022-11-13T00:09:45.265Z,96557.44
2022-11-13T00:12:32.632Z,96549.56
2022-11-13T00:15:18.946Z,96550.25
2022-11-13T00:18:07.033Z,96544.19
2022-11-13T00:20:53.444Z,96544.16
2022-11-13T00:23:39.857Z,96544.25
2022-11-13T00:26:28.530Z,96550.19
2022-11-13T00:29:15.017Z,96539.97
2022-11-13T00:32:01.612Z,96530.47
2022-11-13T00:34:49.599Z,96531.44
2022-11-13T00:37:36.314Z,96533.75
2022-11-13T00:40:22.878Z,96525.91
2022-11-13T00:43:09.616Z,96520.66
2022-11-13T00:45:55.847Z,96524.25
2022-11-13T00:48:42.983Z,96526.94
2022-11-13T00:51:31.660Z,96527.41
2022-11-13T00:54:17.816Z,96517.88
2022-11-13T00:57:04.298Z,96509.88
2022-11-13T00:59:51.288Z,96510.97
2022-11-13T01:02:38.117Z,96500.47
2022-11-13T01:05:24.317Z,96510.47
2022-11-13T01:08:14.002Z,96500.25
2022-11-13T01:11:00.455Z,96498.44
2022-11-13T01:13:49.877Z,96498.59
2022-11-13T01:16:36.045Z,96500.47
2022-11-13T01:19:22.312Z,96504.06
2022-11-13T01:22:08.747Z,96494.84
2022-11-13T01:24:56.149Z,96498.81
2022-11-13T01:27:42.682Z,96498.00
2022-11-13T01:30:28.974Z,96485.88
2022-11-13T01:33:15.757Z,96487.53
2022-11-13T01:36:02.724Z,96481.47
2022-11-13T01:38:50.862Z,96486.69
2022-11-13T01:41:39.586Z,96481.47
2022-11-13T01:44:25.775Z,96474.56
2022-11-13T01:47:12.583Z,96465.19
2022-11-13T01:50:01.745Z,96467.69
2022-11-13T01:52:48.790Z,96456.91
2022-11-13T01:55:35.975Z,96454.44
2022-11-13T01:58:24.778Z,96454.44
2022-11-13T02:01:11.074Z,96446.84
2022-11-13T02:03:57.608Z,96440.38
2022-11-13T02:06:46.653Z,96441.78
2022-11-13T02:09:37.406Z,96437.50
2022-11-13T02:12:30.512Z,96426.06
2022-11-13T02:15:23.465Z,96428.25
2022-11-13T02:18:12.229Z,96416.94
2022-11-13T02:21:06.674Z,96410.06
2022-11-13T02:24:06.053Z,96404.97
2022-11-13T02:26:57.650Z,96409.53
2022-11-13T02:29:44.689Z,96408.81
2022-11-13T02:32:31.257Z,96404.28
2022-11-13T02:35:22.222Z,96396.00
2022-11-13T02:38:09.519Z,96398.75
2022-11-13T02:40:55.786Z,96396.00
2022-11-13T02:43:43.790Z,96396.44
2022-11-13T02:46:29.978Z,96393.53
2022-11-13T02:49:16.971Z,96385.38
2022-11-13T02:52:03.490Z,96392.56
2022-11-13T02:54:49.912Z,96394.63
2022-11-13T02:57:36.556Z,96388.81
2022-11-13T03:00:25.720Z,96390.38
2022-11-13T03:03:12.007Z,96381.53
2022-11-13T03:05:58.329Z,96385.25
2022-11-13T03:08:45.299Z,96384.31
2022-11-13T03:11:31.536Z,96370.09
2022-11-13T03:14:18.954Z,96366.22
2022-11-13T03:17:07.254Z,96375.72
2022-11-13T03:19:54.143Z,96369.13
2022-11-13T03:22:40.486Z,96358.22
2022-11-13T03:25:26.994Z,96355.75
2022-11-13T03:28:13.563Z,96352.16
2022-11-13T03:31:00.178Z,96351.63
2022-11-13T03:33:48.391Z,96348.03
2022-11-13T03:36:34.969Z,96347.19
2022-11-13T03:39:21.811Z,96338.91
2022-11-13T03:42:08.414Z,96337.28
2022-11-13T03:44:55.150Z,96334.50
2022-11-13T03:47:41.577Z,96323.09
2022-11-13T03:50:29.537Z,96323.78
2022-11-13T03:53:16.333Z,96324.59
2022-11-13T03:56:03.686Z,96330.38
2022-11-13T03:58:49.915Z,96318.25
2022-11-13T04:01:36.408Z,96308.88
2022-11-13T04:04:23.511Z,96315.09
2022-11-13T04:07:10.992Z,96313.56
2022-11-13T04:09:57.235Z,96304.75
2022-11-13T04:12:43.716Z,96304.63
2022-11-13T04:15:30.787Z,96293.19
2022-11-13T04:18:17.345Z,96292.34
2022-11-13T04:21:06.048Z,96289.31
2022-11-13T04:23:53.845Z,96279.41
2022-11-13T04:26:40.294Z,96282.72
2022-11-13T04:29:27.280Z,96283.94
2022-11-13T04:32:13.871Z,96280.78
2022-11-13T04:35:00.137Z,96276.06
2022-11-13T04:37:46.759Z,96271.56
2022-11-13T04:40:35.326Z,96270.28
2022-11-13T04:43:20.650Z,96268.66
2022-11-13T04:46:08.086Z,96267.25
2022-11-13T04:48:54.496Z,96268.94
2022-11-13T04:51:40.970Z,96258.47
2022-11-13T04:54:28.852Z,96270.44
2022-11-13T04:57:16.907Z,96265.88
2022-11-13T05:00:03.866Z,96257.91
2022-11-13T05:02:50.423Z,96262.44
2022-11-13T05:05:37.524Z,96268.94
2022-11-13T05:08:23.694Z,96262.59
2022-11-13T05:11:10.410Z,96263.41
2022-11-13T05:14:03.065Z,96256.53
2022-11-13T05:16:50.235Z,96260.66
2022-11-13T05:19:37.110Z,96261.19
2022-11-13T05:22:23.586Z,96251.28
2022-11-13T05:25:10.400Z,96260.94
2022-11-13T05:27:58.635Z,96252.53
2022-11-13T05:30:46.888Z,96247.72
2022-11-13T05:33:33.073Z,96254.59
2022-11-13T05:36:20.933Z,96242.47
2022-11-13T05:39:08.003Z,96238.88
2022-11-13T05:41:54.141Z,96233.38
2022-11-13T05:44:40.760Z,96241.66
2022-11-13T05:47:28.314Z,96248.94
2022-11-13T05:50:15.690Z,96237.25
2022-11-13T05:53:02.093Z,96234.34
2022-11-13T05:55:49.009Z,96233.91
2022-11-13T05:58:36.413Z,96224.84
2022-11-13T06:01:25.398Z,96212.72
2022-11-13T06:04:13.625Z,96214.38
2022-11-13T06:06:59.665Z,96210.09
2022-11-13T06:09:46.433Z,96214.38
2022-11-13T06:12:32.658Z,96213.94
2022-11-13T06:15:19.072Z,96207.75
2022-11-13T06:18:05.381Z,96192.47
2022-11-13T06:20:53.246Z,96203.75
2022-11-13T06:23:41.460Z,96194.13
2022-11-13T06:26:29.853Z,96199.75
2022-11-13T06:29:17.137Z,96205.56
2022-11-13T06:32:03.421Z,96204.03
2022-11-13T06:34:49.853Z,96197.84
2022-11-13T06:37:37.645Z,96188.34
2022-11-13T06:40:23.930Z,96184.34
2022-11-13T06:43:10.674Z,96187.25
2022-11-13T06:45:58.320Z,96185.16
2022-11-13T06:48:45.960Z,96178.03
2022-11-13T06:51:32.526Z,96171.25
2022-11-13T06:54:20.424Z,96178.56
2022-11-13T06:57:06.802Z,96179.53
2022-11-13T06:59:54.227Z,96178.00
2022-11-13T07:02:40.686Z,96179.69
2022-11-13T07:05:27.727Z,96178.56
2022-11-13T07:08:15.149Z,96165.34
2022-11-13T07:11:03.233Z,96148.38
2022-11-13T07:13:50.670Z,96151.84
2022-11-13T07:16:56.625Z,96154.34
2022-11-13T07:19:44.138Z,96148.28
2022-11-13T07:22:31.261Z,96154.06
2022-11-13T07:25:18.313Z,96150.47
2022-11-13T07:28:06.120Z,96152.13
2022-11-13T07:30:52.938Z,96158.16
2022-11-13T07:33:39.181Z,96157.63
2022-11-13T07:36:25.440Z,96155.16
2022-11-13T07:39:12.164Z,96159.56
2022-11-13T07:41:58.337Z,96141.91
2022-11-13T07:44:55.456Z,96145.38
2022-11-13T07:47:42.765Z,96144.97
2022-11-13T07:50:32.199Z,96135.97
2022-11-13T07:53:19.702Z,96140.38
2022-11-13T07:56:06.961Z,96142.31
2022-11-13T07:58:53.501Z,96149.88
2022-11-13T08:01:41.068Z,96125.63
2022-11-13T08:04:27.734Z,96128.63
2022-11-13T08:07:14.743Z,96132.19
2022-11-13T08:10:00.925Z,96137.41
2022-11-13T08:12:48.157Z,96137.13
2022-11-13T08:15:35.288Z,96142.38
2022-11-13T08:18:23.114Z,96146.53
2022-11-13T08:21:14.516Z,96151.47
2022-11-13T08:24:01.338Z,96161.94
2022-11-13T08:26:47.724Z,96179.03
2022-11-13T08:29:37.211Z,96176.28
2022-11-13T08:32:23.863Z,96184.28
2022-11-13T08:35:14.793Z,96187.31
2022-11-13T08:38:03.867Z,96173.53
2022-11-13T08:40:51.214Z,96173.50
2022-11-13T08:43:37.830Z,96185.63
2022-11-13T08:46:24.433Z,96166.09
2022-11-13T08:49:12.500Z,96163.84
2022-11-13T08:52:00.187Z,96166.31
2022-11-13T08:54:46.809Z,96161.38
2022-11-13T08:57:32.988Z,96149.09
2022-11-13T09:00:20.650Z,96129.97
2022-11-13T09:03:07.394Z,96118.94
2022-11-13T09:05:53.981Z,96100.09
2022-11-13T09:08:41.521Z,96108.59
2022-11-13T09:11:28.102Z,96100.88
2022-11-13T09:14:15.348Z,96102.78
2022-11-13T09:17:01.916Z,96102.19
2022-11-13T09:19:48.524Z,96099.69
2022-11-13T09:22:35.214Z,96096.53
2022-11-13T09:25:23.289Z,96097.97
2022-11-13T09:28:11.578Z,96100.53
2022-11-13T09:30:58.060Z,96108.84
2022-11-13T09:33:44.156Z,96110.66
2022-11-13T09:36:30.398Z,96106.16
2022-11-13T09:39:17.540Z,96100.75
2022-11-13T09:42:15.038Z,96105.84
2022-11-13T09:45:07.223Z,96106.06
2022-11-13T09:47:55.650Z,96103.19
2022-11-13T09:50:42.805Z,96100.28
2022-11-13T09:53:34.172Z,96111.69
2022-11-13T09:56:28.355Z,96104.84
2022-11-13T09:59:22.521Z,96106.38
2022-11-13T10:02:18.979Z,96098.03
2022-11-13T10:05:14.681Z,96106.28
2022-11-13T10:08:08.722Z,96094.97
2022-11-13T10:11:03.329Z,96104.34
2022-11-13T10:13:53.402Z,96109.06
2022-11-13T10:16:44.606Z,96097.03
2022-11-13T10:19:39.164Z,96087.25
2022-11-13T10:22:33.471Z,96086.66
2022-11-13T10:25:23.162Z,96077.25
2022-11-13T10:28:43.607Z,96067.78
2022-11-13T10:31:23.150Z,96059.91
2022-11-13T10:34:12.967Z,96048.63
2022-11-13T10:37:14.282Z,96053.75
2022-11-13T10:40:01.033Z,96062.59
2022-11-13T10:42:48.149Z,96048.78
2022-11-13T10:45:35.031Z,96048.19
2022-11-13T10:48:22.750Z,96037.72
2022-11-13T10:51:23.247Z,96025.25
2022-11-13T10:54:24.330Z,96014.06
2022-11-13T10:57:26.148Z,96025.63
2022-11-13T11:00:26.894Z,96005.91
2022-11-13T11:03:18.333Z,95991.00
2022-11-13T11:06:06.665Z,95974.06
2022-11-13T11:08:54.650Z,95978.53
2022-11-13T11:11:58.348Z,95980.66
2022-11-13T11:14:58.772Z,95976.22
2022-11-13T11:17:48.054Z,95972.44
2022-11-13T11:20:46.188Z,95964.88
2022-11-13T11:23:40.799Z,95972.75
2022-11-13T11:26:34.182Z,95961.25
2022-11-13T11:29:27.748Z,95954.88
2022-11-13T11:32:21.122Z,95952.03
2022-11-13T11:35:15.633Z,95964.03
2022-11-13T11:38:06.921Z,95958.75
2022-11-13T11:41:00.406Z,95942.84
2022-11-13T11:43:58.046Z,95951.38
2022-11-13T11:46:46.830Z,95936.25
2022-11-13T11:49:33.761Z,95931.50
2022-11-13T11:52:36.297Z,95921.13
2022-11-13T11:55:37.201Z,95931.16
2022-11-13T11:58:39.188Z,95912.91
2022-11-13T12:01:41.078Z,95909.41
2022-11-13T12:04:39.244Z,95908.06
2022-11-13T12:07:37.053Z,95893.44
2022-11-13T12:10:31.166Z,95888.13
2022-11-13T12:13:28.362Z,95876.59
2022-11-13T12:16:25.132Z,95871.41
2022-11-13T12:19:24.317Z,95863.94
2022-11-13T12:22:21.442Z,95860.78
2022-11-13T12:25:20.357Z,95869.13
2022-11-13T12:28:14.990Z,95861.44
2022-11-13T12:31:14.013Z,95867.06
2022-11-13T12:34:09.526Z,95866.63
2022-11-13T12:36:59.233Z,95855.59
2022-11-13T12:39:55.802Z,95857.41
2022-11-13T12:42:49.189Z,95853.25
2022-11-13T12:45:50.916Z,95857.63
2022-11-13T12:48:39.386Z,95856.34
2022-11-13T12:51:25.967Z,95860.44
2022-11-13T12:54:13.819Z,95844.19
2022-11-13T12:57:09.042Z,95836.31
2022-11-13T12:59:57.293Z,95834.53
2022-11-13T13:03:02.547Z,95834.88
2022-11-13T13:06:15.076Z,95839.81
2022-11-13T13:09:19.782Z,95842.09
2022-11-13T13:12:16.510Z,95828.09
2022-11-13T13:15:14.107Z,95825.28
2022-11-13T13:18:06.951Z,95831.06
2022-11-13T13:21:01.556Z,95834.47
2022-11-13T13:23:50.650Z,95833.66
2022-11-13T13:26:46.308Z,95827.00
2022-11-13T13:29:35.092Z,95844.91
2022-11-13T13:32:27.302Z,95844.47
2022-11-13T13:35:18.642Z,95845.84
2022-11-13T13:38:15.157Z,95833.91
2022-11-13T13:41:17.259Z,95836.19
2022-11-13T13:44:32.630Z,95829.63
2022-11-13T13:47:27.357Z,95835.22
2022-11-13T13:50:18.093Z,95834.41
2022-11-13T13:53:04.660Z,95833.41
2022-11-13T13:55:54.504Z,95835.75
2022-11-13T13:58:41.398Z,95826.41
2022-11-13T14:01:30.942Z,95844.63
2022-11-13T14:04:21.291Z,95837.22
2022-11-13T14:07:20.893Z,95841.22
2022-11-13T14:10:16.006Z,95814.59
2022-11-13T14:13:02.454Z,95809.81
2022-11-13T14:15:48.756Z,95808.69
2022-11-13T14:18:37.729Z,95802.59
2022-11-13T14:21:25.198Z,95795.72
2022-11-13T14:24:21.458Z,95789.28
2022-11-13T14:27:12.020Z,95794.06
2022-11-13T14:30:02.111Z,95770.59
2022-11-13T14:32:48.931Z,95771.25
2022-11-13T14:35:39.842Z,95773.69
2022-11-13T14:38:29.129Z,95783.09
2022-11-13T14:41:23.684Z,95791.13
2022-11-13T14:44:12.924Z,95785.38
2022-11-13T14:47:04.113Z,95791.13
2022-11-13T14:49:51.174Z,95777.66
2022-11-13T14:52:38.793Z,95782.75
2022-11-13T14:55:28.037Z,95768.63
2022-11-13T14:58:15.018Z,95773.41
2022-11-13T15:01:15.000Z,95781.75
2022-11-13T15:04:02.043Z,95779.81
2022-11-13T15:06:50.869Z,95779.31
2022-11-13T15:09:39.037Z,95772.41
2022-11-13T15:12:25.795Z,95766.19
2022-11-13T15:15:16.170Z,95771.28
2022-11-13T15:18:03.695Z,95770.78
2022-11-13T15:20:50.913Z,95780.78
2022-11-13T15:23:37.534Z,95768.66
2022-11-13T15:26:25.574Z,95764.56
2022-11-13T15:29:12.040Z,95761.09
2022-11-13T15:31:58.858Z,95769.94
2022-11-13T15:34:45.678Z,95750.53
2022-11-13T15:37:32.318Z,95751.97
2022-11-13T15:40:19.159Z,95755.28
2022-11-13T15:43:11.042Z,95751.59
2022-11-13T15:45:57.931Z,95745.66
2022-11-13T15:48:44.686Z,95746.25
2022-11-13T15:51:37.213Z,95759.16
2022-11-13T15:54:27.612Z,95756.69
2022-11-13T15:57:20.640Z,95756.63
2022-11-13T16:00:14.793Z,95760.44
2022-11-13T16:03:00.993Z,95755.81
2022-11-13T16:05:47.341Z,95760.66
2022-11-13T16:08:34.337Z,95755.56
2022-11-13T16:11:23.367Z,95756.25
2022-11-13T16:14:13.469Z,95768.94
2022-11-13T16:17:01.735Z,95768.63
2022-11-13T16:19:50.634Z,95759.63
2022-11-13T16:22:37.302Z,95758.47
2022-11-13T16:25:24.137Z,95753.00
2022-11-13T16:28:16.490Z,95755.53
2022-11-13T16:31:03.078Z,95752.97
2022-11-13T16:33:50.805Z,95753.13
2022-11-13T16:36:37.009Z,95747.97
2022-11-13T16:39:23.684Z,95755.88
2022-11-13T16:42:10.338Z,95761.00
2022-11-13T16:44:57.010Z,95757.63
2022-11-13T16:47:43.279Z,95751.31
2022-11-13T16:50:33.687Z,95754.41
2022-11-13T16:53:19.994Z,95759.53
2022-11-13T16:56:13.544Z,95763.00
2022-11-13T16:59:00.646Z,95763.72
2022-11-13T17:01:46.833Z,95756.53
2022-11-13T17:04:33.263Z,95756.25
2022-11-13T17:07:20.938Z,95757.88
2022-11-13T17:10:30.148Z,95747.72
2022-11-13T17:13:15.774Z,95740.00
2022-11-13T17:16:02.687Z,95741.25
2022-11-13T17:18:50.304Z,95731.94
2022-11-13T17:21:41.309Z,95727.41
2022-11-13T17:24:31.802Z,95723.00
2022-11-13T17:27:18.606Z,95719.19
2022-11-13T17:30:06.425Z,95718.38
2022-11-13T17:32:52.953Z,95716.94
2022-11-13T17:35:40.190Z,95729.69
2022-11-13T17:38:27.096Z,95720.75
2022-11-13T17:41:15.830Z,95729.00
2022-11-13T17:44:02.016Z,95721.47
2022-11-13T17:46:48.583Z,95727.97
2022-11-13T17:49:35.742Z,95724.03
2022-11-13T17:52:21.816Z,95728.72
2022-11-13T17:55:11.801Z,95718.81
2022-11-13T17:58:01.247Z,95711.97
2022-11-13T18:00:48.845Z,95710.31
2022-11-13T18:03:35.716Z,95724.13
2022-11-13T18:06:22.756Z,95727.25
2022-11-13T18:09:09.506Z,95724.38
2022-11-13T18:11:55.876Z,95728.63
2022-11-13T18:14:44.341Z,95721.75
2022-11-13T18:17:30.941Z,95725.72
2022-11-13T18:20:17.482Z,95727.28
2022-11-13T18:23:03.817Z,95730.56
2022-11-13T18:25:50.144Z,95725.34
2022-11-13T18:28:36.814Z,95726.75
2022-11-13T18:31:24.854Z,95729.19
2022-11-13T18:34:14.069Z,95728.75
2022-11-13T18:37:00.601Z,95736.09
2022-11-13T18:39:47.124Z,95746.88
2022-11-13T18:42:33.528Z,95739.28
2022-11-13T18:45:19.953Z,95739.13
2022-11-13T18:48:07.832Z,95729.81
2022-11-13T18:50:57.655Z,95719.09
2022-11-13T18:53:46.029Z,95723.84
2022-11-13T18:56:33.302Z,95720.56
2022-11-13T18:59:19.942Z,95722.53
2022-11-13T19:02:06.558Z,95721.69
2022-11-13T19:04:54.648Z,95719.53
2022-11-13T19:07:41.114Z,95723.09
2022-11-13T19:10:28.066Z,95718.66
2022-11-13T19:13:14.427Z,95725.38
2022-11-13T19:16:05.773Z,95731.75
2022-11-13T19:18:54.103Z,95728.78
2022-11-13T19:21:42.010Z,95720.72
2022-11-13T19:24:28.660Z,95730.97
2022-11-13T19:27:15.111Z,95721.72
2022-11-13T19:30:01.908Z,95722.09
2022-11-13T19:32:48.117Z,95719.31
2022-11-13T19:35:34.864Z,95719.94
2022-11-13T19:38:23.033Z,95715.97
2022-11-13T19:41:10.790Z,95726.97
2022-11-13T19:43:59.452Z,95716.50
2022-11-13T19:46:46.267Z,95714.56
2022-11-13T19:49:34.946Z,95698.88
2022-11-13T19:52:21.557Z,95699.38
2022-11-13T19:55:10.493Z,95700.81
2022-11-13T19:57:56.993Z,95697.38
2022-11-13T20:00:44.937Z,95705.81
2022-11-13T20:03:31.651Z,95700.59
2022-11-13T20:06:18.977Z,95694.06
2022-11-13T20:09:05.162Z,95704.44
2022-11-13T20:11:53.557Z,95699.09
2022-11-13T20:14:40.246Z,95703.69
2022-11-13T20:17:27.349Z,95707.69
2022-11-13T20:20:13.658Z,95702.72
2022-11-13T20:23:00.490Z,95701.53
2022-11-13T20:25:52.838Z,95695.47
2022-11-13T20:28:40.770Z,95686.44
2022-11-13T20:31:28.349Z,95688.06
2022-11-13T20:34:15.745Z,95693.97
2022-11-13T20:37:02.528Z,95679.56
2022-11-13T20:39:48.762Z,95682.53
2022-11-13T20:42:35.822Z,95677.31
2022-11-13T20:45:23.273Z,95671.75
2022-11-13T20:48:09.941Z,95665.94
2022-11-13T20:50:56.593Z,95662.63
2022-11-13T20:53:43.111Z,95668.00
2022-11-13T20:56:30.261Z,95675.59
2022-11-13T20:59:16.528Z,95673.72
2022-11-13T21:02:04.782Z,95678.94
2022-11-13T21:04:51.645Z,95694.03
2022-11-13T21:07:37.892Z,95691.06
2022-11-13T21:10:24.362Z,95696.59
2022-11-13T21:13:10.925Z,95689.09
2022-11-13T21:15:57.246Z,95699.16
2022-11-13T21:18:45.413Z,95702.16
2022-11-13T21:21:32.049Z,95690.88
2022-11-13T21:24:19.037Z,95696.94
2022-11-13T21:27:06.073Z,95681.44
2022-11-13T21:29:52.274Z,95683.47
2022-11-13T21:32:39.162Z,95671.88
2022-11-13T21:35:27.390Z,95670.84
2022-11-13T21:38:14.253Z,95663.66
2022-11-13T21:41:18.847Z,95675.47
2022-11-13T21:44:08.025Z,95665.66
2022-11-13T21:46:55.393Z,95666.84
2022-11-13T21:49:42.057Z,95677.91
2022-11-13T21:52:30.620Z,95677.97
2022-11-13T21:55:17.418Z,95679.63
2022-11-13T21:58:04.498Z,95691.66
2022-11-13T22:00:51.091Z,95690.44
2022-11-13T22:04:29.314Z,95685.81
2022-11-13T22:07:15.845Z,95670.13
2022-11-13T22:10:07.940Z,95669.75
2022-11-13T22:12:54.988Z,95669.47
2022-11-13T22:15:41.366Z,95672.06
2022-11-13T22:18:28.346Z,95664.34
2022-11-13T22:21:16.733Z,95661.00
2022-11-13T22:24:04.343Z,95647.09
2022-11-13T22:26:51.503Z,95646.50
2022-11-13T22:29:37.987Z,95651.06
2022-11-13T22:32:24.744Z,95654.41
2022-11-13T22:35:10.936Z,95644.88
2022-11-13T22:37:59.120Z,95645.47
2022-11-13T22:40:45.377Z,95652.91
2022-11-13T22:43:36.955Z,95647.84
2022-11-13T22:46:24.432Z,95637.16
2022-11-13T22:49:13.401Z,95643.41
2022-11-13T22:51:59.897Z,95647.06
2022-11-13T22:54:47.707Z,95632.44
2022-11-13T22:57:34.639Z,95630.78
2022-11-13T23:00:21.481Z,95634.88
2022-11-13T23:03:08.100Z,95641.16
2022-11-13T23:05:54.538Z,95639.56
2022-11-13T23:08:41.778Z,95644.44
2022-11-13T23:11:31.438Z,95651.41
2022-11-13T23:14:18.118Z,95638.34
2022-11-13T23:17:04.308Z,95634.41
2022-11-13T23:19:51.315Z,95635.72
2022-11-13T23:22:37.553Z,95635.94
2022-11-13T23:25:23.867Z,95635.94
2022-11-13T23:28:11.814Z,95631.19
2022-11-13T23:30:58.045Z,95636.16
2022-11-13T23:33:45.214Z,95640.75
2022-11-13T23:36:31.635Z,95633.59
2022-11-13T23:39:18.160Z,95631.91
2022-11-13T23:42:04.446Z,95616.56
2022-11-13T23:44:52.692Z,95618.88
2022-11-13T23:47:38.919Z,95610.03
2022-11-13T23:50:25.576Z,95602.53
2022-11-13T23:53:12.058Z,95594.69
2022-11-13T23:55:58.713Z,95608.19
2022-11-13T23:58:45.850Z,95615.38
